Weather reports worldwide

Advertisment
Feldberg/Schwarzwald, Germany (10908): temperature & dewpoint: 10.08.2018 18:00:00 - 16.08.2018 18:00:00 (CEST)Feldberg/Schwarzwald, Germany (10908): temperature 5cm & temperature -5cm: 10.08.2018 18:00:00 - 16.08.2018 18:00:00 (CEST)Feldberg/Schwarzwald, Germany (10908): temperature -20cm & temperature -100cm: 10.08.2018 18:00:00 - 16.08.2018 18:00:00 (CEST)Feldberg/Schwarzwald, Germany (10908): wind speed & gusts: 10.08.2018 18:00:00 - 16.08.2018 18:00:00 (CEST)Feldberg/Schwarzwald, Germany (10908): wind direction: 10.08.2018 18:00:00 - 16.08.2018 18:00:00 (CEST)Feldberg/Schwarzwald, Germany (10908): visibility: 10.08.2018 18:00:00 - 16.08.2018 18:00:00 (CEST)Feldberg/Schwarzwald, Germany (10908): sunshine duration: 10.08.2018 18:00:00 - 16.08.2018 18:00:00 (CEST)Feldberg/Schwarzwald, Germany (10908): precipitation: 10.08.2018 18:00:00 - 16.08.2018 18:00:00 (CEST)
Date & Time tt [°C] td [°C] tt 5cm [°C] tt -5cm [°C] tt -20cm [°C] tt -100cm [°C] ff [km/h] ff [kn] fx [km/h] fx [kn] dd vv [km] sd [min] rr [mm]
16.08.2018 18:00:00 18,5 10,8 21,5 23,6 16,6 12,6 6 3 15 8 NNE 70 26 0,0
16.08.2018 17:00:00 18,4 10,8 18,9 25,1 16,0 12,6 9 5 17 9 NNW 70 21 0,0
16.08.2018 16:00:00 19,4 11,2 26,3 25,3 15,4 12,6 10 5 18 10 NNW 47 23 0,0
16.08.2018 15:00:00 19,0 10,7 27,3 26,6 14,8 12,6 8 4 21 12 NNE 43 58 0,0
16.08.2018 14:00:00 18,1 9,7 23,7 24,2 14,2 12,6 10 5 20 11 N 70 51 0,0
16.08.2018 13:00:00 18,6 9,0 24,4 22,3 13,8 12,6 8 4 29 15 E 70 60 0,0
16.08.2018 12:00:00 17,7 10,1 23,2 19,5 13,5 12,6 9 5 27 15 ENE 52 60 0,0
16.08.2018 11:00:00 16,0 8,7 20,3 16,8 13,4 12,7 12 7 21 12 ENE 49 60 0,0
16.08.2018 10:00:00 15,5 8,6 18,7 14,1 13,5 12,7 9 5 15 8 E 37 60 0,0
16.08.2018 09:00:00 14,7 8,5 15,7 11,6 13,7 12,7 9 5 13 7 E 40 60 0,0
16.08.2018 08:00:00 13,7 7,9 12,4 9,9 13,9 12,7 8 4 10 5 ESE 56 60 0,0
16.08.2018 07:00:00 13,4 7,6 7,8 9,7 14,1 12,7 6 4 13 7 ESE 46 3 0,0
16.08.2018 06:00:00 13,3 7,8 8,2 10,0 14,4 12,7 10 5 16 9 ESE 49 0 0,0
16.08.2018 05:00:00 13,2 7,6 8,2 10,4 14,6 12,7 14 7 19 10 ESE 46 0 0,0
16.08.2018 04:00:00 13,3 7,7 9,2 10,9 14,9 12,7 18 10 23 12 ESE 55 0 0,0
16.08.2018 03:00:00 13,0 8,0 9,4 11,3 15,1 12,7 21 11 22 12 ESE 42 0 0,0
16.08.2018 02:00:00 12,7 8,7 9,5 11,7 15,4 12,7 19 10 22 12 ESE 45 0 0,0
16.08.2018 01:00:00 13,3 8,4 9,4 12,2 15,7 12,7 17 9 19 11 ESE 61 0 0,0
16.08.2018 00:00:00 13,9 8,2 9,0 12,9 15,9 12,7 11 6 13 7 E 64 0 0,0
15.08.2018 23:00:00 14,0 8,6 8,5 13,9 16,0 12,7 6 3 9 5 S 70 0 0,0
15.08.2018 22:00:00 13,5 8,5 7,4 15,1 16,0 12,7 2 1 15 8 SSE 70 0 0,0
15.08.2018 21:00:00 13,5 8,7 12,0 16,8 15,9 12,7 15 8 17 9 NNW 54 20 0,0
15.08.2018 20:00:00 14,4 8,4 14,4 18,9 15,7 12,7 12 7 16 9 NNW 70 60 0,0
15.08.2018 19:00:00 15,6 8,6 17,4 20,0 15,5 12,7 10 5 24 13 WNW 49 60 0,0
15.08.2018 18:00:00 15,5 8,6 18,4 19,7 15,3 12,8 12 7 21 12 W 34 39 0,0
15.08.2018 17:00:00 15,0 9,0 17,6 19,6 14,9 12,8 8 4 13 7 NNE 66 1 0,0
15.08.2018 16:00:00 14,8 9,0 17,8 20,9 14,6 12,8 8 4 18 10 NNE 66 26 0,0
15.08.2018 15:00:00 14,2 8,9 16,7 19,7 14,2 12,8 9 5 18 10 NW 39 15 0,0
15.08.2018 14:00:00 14,5 9,2 17,5 19,8 13,8 12,8 12 7 23 13 NNW 29 25 0,0
15.08.2018 13:00:00 13,9 9,4 16,4 19,4 13,5 12,8 8 4 21 12 N 70 41 0,0
15.08.2018 12:00:00 12,9 8,5 15,6 17,1 13,3 12,8 8 4 16 9 N 52 31 0,0
15.08.2018 11:00:00 12,0 8,9 14,0 15,2 13,2 12,8 9 5 16 9 N 42 10 0,0
15.08.2018 10:00:00 12,2 8,6 16,4 13,7 13,3 12,8 6 3 11 6 W 60 54 0,0
15.08.2018 09:00:00 11,1 8,4 11,8 11,3 13,4 12,8 3 2 6 3 W 31 60 0,0
15.08.2018 08:00:00 11,0 8,1 10,1 9,6 13,6 12,8 0 0 9 5 N 28 60 0,0
15.08.2018 07:00:00 9,6 9,2 7,0 9,3 13,9 12,8 8 4 13 7 NNE 0,3 3 0,0
15.08.2018 06:00:00 9,9 8,0 7,7 9,7 14,1 12,8 10 5 13 7 N 22 0 0,0
15.08.2018 05:00:00 9,4 9,2 8,1 9,8 14,3 12,8 10 5 12 7 NNE 0,1 0 0,0
15.08.2018 04:00:00 9,4 9,0 7,8 10,3 14,6 12,8 8 4 16 9 NNE 0,3 0 0,0
15.08.2018 03:00:00 9,4 9,0 8,6 10,7 14,8 12,8 13 7 22 12 NNW 0,4 0 0,0
15.08.2018 02:00:00 9,7 9,0 8,8 11,0 15,1 12,8 16 9 27 15 N 9 0 0,0
15.08.2018 01:00:00 10,5 7,3 9,0 11,6 15,3 12,8 24 13 29 16 NW 44 0 0,0
15.08.2018 00:00:00 10,9 8,0 9,5 12,2 15,5 12,8 18 10 22 12 NNW 47 0 0,0
14.08.2018 23:00:00 10,1 9,3 9,5 12,7 15,7 12,9 21 11 28 15 N 14 0 0,0
14.08.2018 22:00:00 10,3 9,3 9,8 13,4 15,9 12,9 25 13 32 17 N 17 0 0,0
14.08.2018 21:00:00 11,0 8,1 10,0 14,7 15,9 12,9 23 13 32 18 N 49 14 0,0
14.08.2018 20:00:00 11,7 8,2 11,1 16,5 15,8 12,9 22 12 35 19 NNW 70 6 0,0
14.08.2018 19:00:00 12,6 7,8 12,8 18,6 15,6 12,9 21 11 36 19 NNW 70 30 0,0
14.08.2018 18:00:00 13,5 7,8 15,4 20,0 15,2 12,9 20 11 33 18 NNW 56 53 0,0
14.08.2018 17:00:00 13,2 8,7 17,4 19,9 14,9 12,9 18 10 31 17 NNW 58 31 0,0
14.08.2018 16:00:00 13,3 9,0 19,0 20,3 14,5 12,9 14 8 30 16 N 36 35 0,0
14.08.2018 15:00:00 12,9 9,5 17,5 19,4 14,3 12,9 20 11 33 18 NNW 35 34 0,0
14.08.2018 14:00:00 11,7 9,3 14,0 18,2 14,0 12,9 21 11 37 20 NW 60 23 0,0
14.08.2018 13:00:00 12,1 8,1 18,2 17,1 13,9 12,9 24 13 33 18 WNW 32 43 0,0
14.08.2018 12:00:00 10,7 8,4 13,3 15,3 13,8 12,9 26 14 38 21 WNW 53 18 0,0
14.08.2018 11:00:00 10,3 9,8 11,0 13,9 13,8 12,9 17 9 28 15 NW 14 6 0,0
14.08.2018 10:00:00 9,8 9,4 11,3 12,6 13,9 12,9 18 10 32 18 W 22 5 0,0
14.08.2018 09:00:00 9,4 8,8 10,1 11,9 14,0 12,9 20 11 34 18 WNW 4,2 6 0,0
14.08.2018 08:00:00 9,3 8,9 10,0 11,4 14,1 12,9 21 11 27 15 W 8 21 0,0
14.08.2018 07:00:00 9,2 8,9 9,5 11,2 14,2 12,9 16 9 23 12 W 1,7 0 0,0
14.08.2018 06:00:00 9,3 9,0 9,5 11,4 14,3 12,9 18 10 26 14 W 1,5 0 0,1
14.08.2018 05:00:00 9,6 9,4 9,8 11,8 14,4 12,9 19 10 27 15 W 0,1 0 0,1
14.08.2018 04:00:00 9,7 9,5 10,0 11,9 14,6 12,9 21 11 32 17 WNW 0,1 0 0,0
14.08.2018 03:00:00 10,2 10,0 10,4 12,0 14,7 12,9 23 12 44 24 W 0,1 0 0,0
14.08.2018 02:00:00 10,0 9,8 10,3 12,1 14,8 12,9 31 17 45 25 W 0,4 0 0,0
14.08.2018 01:00:00 10,5 10,2 10,6 12,3 15,0 12,9 26 14 47 26 WSW 0,1 0 0,0
14.08.2018 00:00:00 10,9 10,7 11,1 12,4 15,1 12,9 24 13 39 21 W 0,1 0 0,0
13.08.2018 23:00:00 10,9 10,3 10,9 12,4 15,3 12,9 29 16 49 26 WSW 30 0 0,0
13.08.2018 22:00:00 11,3 9,8 10,9 12,7 15,4 12,9 36 19 50 27 W 70 0 0,0
13.08.2018 21:00:00 11,0 9,9 10,4 13,3 15,5 12,9 36 20 68 37 WSW 50 0 0,0
13.08.2018 20:00:00 11,4 11,0 11,6 14,1 15,6 12,9 38 20 52 28 WSW 19 1 0,0
13.08.2018 19:00:00 11,7 11,2 12,2 14,5 15,6 12,9 45 24 68 37 WSW 11 1 0,1
13.08.2018 18:00:00 11,3 11,1 12,3 14,6 15,6 12,9 38 20 61 33 WSW 8 1 4,3
13.08.2018 17:00:00 12,3 12,0 12,8 15,0 15,7 12,9 32 18 55 30 SW 1,1 0 0,9
13.08.2018 16:00:00 12,5 12,2 13,3 15,5 15,7 13,0 34 18 62 34 SW 11 2 0,0
13.08.2018 15:00:00 12,4 12,2 14,9 15,1 15,8 13,0 37 20 62 33 SW 7 3 0,0
13.08.2018 14:00:00 11,5 11,4 12,5 14,3 15,9 13,0 39 21 69 37 SW 4,0 0 0,1
13.08.2018 13:00:00 11,1 10,9 12,0 13,8 16,0 13,0 47 26 72 39 SSW 0,1 0 1,9
13.08.2018 12:00:00 10,7 10,5 11,3 14,1 16,2 13,0 56 30 73 39 SW 0,9 0 0,5
13.08.2018 11:00:00 11,1 10,6 11,7 14,4 16,3 13,0 49 26 69 37 SW 17 0 0,3
13.08.2018 10:00:00 11,5 9,6 11,6 13,9 16,5 13,0 49 26 66 35 WSW 70 0 0,0
13.08.2018 09:00:00 10,6 10,3 11,4 14,3 16,6 13,0 42 23 74 40 WSW 16 0 4,7
13.08.2018 08:00:00 12,9 11,1 12,3 14,9 16,8 13,0 51 28 70 38 SW 8 31 0,0
13.08.2018 07:00:00 15,0 8,4 13,9 14,5 17,0 13,0 50 27 74 40 SW 44 10 0,0
13.08.2018 06:00:00 16,1 6,7 14,1 14,8 17,3 13,0 37 20 51 28 SW 70 0 0,0
13.08.2018 05:00:00 16,7 5,7 14,0 14,9 17,5 13,0 33 18 36 19 SSW 70 0 0,0
13.08.2018 04:00:00 16,9 6,2 14,1 15,3 17,8 13,0 26 14 37 20 SSW 70 0 0,0
13.08.2018 03:00:00 17,4 5,3 14,6 15,7 18,1 13,0 34 19 44 24 SW 70 0 0,0
13.08.2018 02:00:00 17,1 6,6 14,8 16,0 18,3 13,0 35 19 43 23 SSW 70 0 0,0
13.08.2018 01:00:00 16,9 7,2 13,9 16,6 18,6 13,0 31 17 36 19 SSW 70 0 0,0
13.08.2018 00:00:00 17,0 5,6 14,1 17,4 18,8 13,0 30 16 33 18 SSW 70 0 0,0
12.08.2018 23:00:00 17,5 5,4 14,1 18,5 19,0 13,1 26 14 30 16 S 70 0 0,0
12.08.2018 22:00:00 17,3 7,2 13,9 20,0 19,0 13,1 24 13 26 14 S 70 0 0,0
12.08.2018 21:00:00 17,3 7,1 14,3 22,1 18,9 13,1 18 10 26 14 SSW 70 27 0,0
12.08.2018 20:00:00 18,0 6,7 17,9 24,4 18,6 13,1 22 12 34 18 SSW 70 60 0,0
12.08.2018 19:00:00 18,7 5,7 20,7 26,3 18,1 13,1 23 13 38 21 SW 14 60 0,0
12.08.2018 18:00:00 19,6 4,8 23,2 27,5 17,4 13,1 21 11 34 18 SSW 28 60 0,0
12.08.2018 17:00:00 19,4 4,2 24,4 27,9 16,8 13,1 22 12 36 19 SSW 31 60 0,0
12.08.2018 16:00:00 19,1 3,6 24,6 27,7 16,1 13,1 22 12 33 18 SSW 70 60 0,0
12.08.2018 15:00:00 17,7 3,4 23,8 26,4 15,4 13,1 18 10 35 19 SSW 67 60 0,0
12.08.2018 14:00:00 16,9 -0,4 23,4 25,0 14,8 13,1 25 13 39 21 SSW 33 60 0,0
12.08.2018 13:00:00 16,4 4,4 22,9 23,0 14,4 13,1 19 10 28 15 SSW 45 60 0,0
12.08.2018 12:00:00 15,4 5,8 21,0 20,1 14,2 13,1 13 7 27 15 SSW 51 60 0,0
12.08.2018 11:00:00 14,7 3,8 19,3 16,9 14,1 13,1 11 6 21 12 S 49 60 0,0
12.08.2018 10:00:00 13,4 5,3 16,7 13,7 14,2 13,1 11 6 20 11 SSE 68 60 0,0
12.08.2018 09:00:00 12,9 5,4 13,5 11,2 14,4 13,1 13 7 19 10 SSE 52 60 0,0
12.08.2018 08:00:00 11,7 4,6 11,0 9,5 14,7 13,1 16 9 24 13 SE 45 60 0,0
12.08.2018 07:00:00 10,3 4,2 7,5 9,2 15,0 13,1 23 12 29 15 SE 70 11 0,0
12.08.2018 06:00:00 9,9 4,1 6,6 9,6 15,3 13,1 26 14 32 18 ESE 70 0 0,0
12.08.2018 05:00:00 10,2 4,1 6,9 9,9 15,6 13,2 26 14 30 16 ESE 70 0 0,0
12.08.2018 04:00:00 10,3 4,3 6,9 10,4 16,0 13,2 26 14 32 17 ESE 70 0 0,0
12.08.2018 03:00:00 10,2 4,5 6,6 11,0 16,3 13,2 22 12 25 14 SE 70 0 0,0
12.08.2018 02:00:00 10,0 4,7 6,7 11,6 16,6 13,2 18 10 24 13 ESE 70 0 0,0
12.08.2018 01:00:00 10,8 4,3 7,1 12,3 16,9 13,2 18 10 24 13 ESE 70 0 0,0
12.08.2018 00:00:00 11,0 4,1 5,7 13,3 17,2 13,2 11 6 17 9 SE 70 0 0,0
11.08.2018 23:00:00 11,7 3,9 3,5 14,7 17,4 13,2 5 3 6 4 WSW 70 0 0,0
11.08.2018 22:00:00 11,5 4,5 8,6 16,4 17,4 13,2 5 3 10 5 N 70 0 0,0
11.08.2018 21:00:00 11,8 4,5 9,8 18,5 17,3 13,2 10 6 21 12 N 70 13 0,0
11.08.2018 20:00:00 12,7 4,5 11,7 21,0 17,0 13,2 14 7 22 12 WNW 70 55 0,0
11.08.2018 19:00:00 13,7 3,9 15,3 22,8 16,6 13,2 15 8 24 13 WNW 34 60 0,0
11.08.2018 18:00:00 13,9 4,1 17,6 23,1 16,2 13,2 14 8 29 16 NW 50 58 0,0
11.08.2018 17:00:00 13,0 4,1 15,1 22,8 15,8 13,2 16 8 29 16 WNW 57 36 0,0
11.08.2018 16:00:00 13,4 4,6 16,3 22,1 15,4 13,2 11 6 25 14 WNW 49 31 0,0
11.08.2018 15:00:00 12,3 4,6 19,2 21,0 15,0 13,2 14 8 25 13 WNW 70 31 0,0
11.08.2018 14:00:00 12,0 4,5 15,3 20,0 14,6 13,2 13 7 28 15 NW 56 28 0,0
11.08.2018 13:00:00 11,0 4,0 16,4 19,2 14,3 13,2 11 6 23 12 WNW 54 34 0,0
11.08.2018 12:00:00 10,5 3,9 16,8 17,5 14,1 13,2 15 8 28 15 W 34 50 0,0
11.08.2018 11:00:00 9,7 4,4 14,8 15,0 14,1 13,2 13 7 27 15 W 27 59 0,0
11.08.2018 10:00:00 8,9 4,1 12,9 12,3 14,3 13,2 16 8 35 19 W 28 60 0,0
11.08.2018 09:00:00 8,2 4,2 10,0 10,3 14,5 13,2 15 8 29 16 W 70 60 0,0
11.08.2018 08:00:00 7,6 3,8 7,8 9,1 14,8 13,2 19 10 26 14 W 46 60 0,0
11.08.2018 07:00:00 7,7 4,5 5,9 9,0 15,0 13,2 16 9 24 13 W 63 10 0,0
11.08.2018 06:00:00 8,3 5,2 6,0 9,6 15,3 13,2 20 11 32 18 WSW 69 0 0,0
11.08.2018 05:00:00 8,5 5,2 6,4 10,0 15,6 13,2 19 11 25 14 WSW 65 0 0,0
11.08.2018 04:00:00 8,6 5,2 6,6 10,2 15,9 13,2 14 8 18 10 WSW 60 0 0,0
11.08.2018 03:00:00 8,8 5,8 6,8 10,9 16,2 13,3 16 9 23 13 W 70 0 0,0
11.08.2018 02:00:00 9,8 5,2 8,2 11,2 16,5 13,3 18 10 23 12 W 70 0 0,0
11.08.2018 01:00:00 10,0 4,9 7,4 11,8 16,8 13,3 16 8 18 10 WNW 70 0 0,0
11.08.2018 00:00:00 10,5 3,2 8,2 12,7 17,0 13,3 15 8 33 18 W 70 0 0,0
10.08.2018 23:00:00 11,4 2,8 9,4 13,6 17,3 13,3 25 14 32 17 WSW 70 0 0,0
10.08.2018 22:00:00 11,3 4,0 9,6 14,6 17,4 13,3 24 13 29 15 WSW 70 0 0,0
10.08.2018 21:00:00 11,5 4,6 8,7 16,3 17,4 13,3 17 9 25 13 SW 70 15 0,0
10.08.2018 20:00:00 12,4 4,5 12,2 18,5 17,2 13,3 19 10 29 15 WSW 39 58 0,0
10.08.2018 19:00:00 12,6 4,8 13,6 19,6 17,0 13,3 16 9 32 17 SSW 61 23 0,0
10.08.2018 18:00:00 12,2 4,3 14,0 21,2 16,7 13,3 24 13 44 24 WSW 44 55 0,0

tt = temperature
td = dewpoint
tt 5cm = temperature 5cm
tt -5cm = temperature -5cm
tt -20cm = temperature -20cm
tt -100cm = temperature -100cm
ff = wind speed
fx = gusts
dd = wind direction
vv = visibility
sd = sunshine duration
rr = precipitation

Next stations